Date,TemperatureHighF,TemperatureAvgF,TemperatureLowF,DewpointHighF,DewpointAvgF,DewpointLowF,HumidityHigh,HumidityAvg,HumidityLow,PressureMaxIn,PressureMinIn,WindSpeedMaxMPH,WindSpeedAvgMPH,GustSpeedMaxMPH,PrecipitationSumIn
2013-1-2,33.0,26.7,17.0,-99.9,-99.9,-99.9,0,0,100,0.00,40.00,10,4,0,0.00
2013-1-3,40.0,24.6,13.0,-99.9,-99.9,-99.9,0,0,100,0.00,40.00,7,4,0,0.00
2013-1-4,50.0,28.8,17.0,-99.9,-99.9,-99.9,0,0,100,0.00,40.00,5,4,0,0.00
2013-1-5,40.0,28.2,18.0,-99.9,-99.9,-99.9,0,0,100,0.00,40.00,10,4,0,0.00
2013-1-6,46.0,26.8,11.0,-99.9,-99.9,-99.9,0,0,100,0.00,40.00,5,3,0,0.00
2013-1-7,55.0,36.6,25.0,-99.9,-99.9,-99.9,0,0,100,0.00,40.00,6,3,0,0.00
2013-1-8,53.0,40.5,26.0,-99.9,-99.9,-99.9,0,0,100,0.00,40.00,18,5,0,0.00
2013-1-9,62.0,39.2,22.0,-99.9,-99.9,-99.9,0,0,100,0.00,40.00,9,4,0,0.00
2013-1-10,41.0,29.9,18.0,-99.9,-99.9,-99.9,0,0,100,0.00,40.00,10,2,0,0.00
2013-1-11,45.0,28.3,12.0,-99.9,-99.9,-99.9,0,0,100,0.00,40.00,13,6,0,0.00
2013-1-12,15.0,8.6,3.0,-99.9,-99.9,-99.9,0,0,100,0.00,40.00,9,4,0,0.00
2013-1-13,16.0,9.3,1.0,-99.9,-99.9,-99.9,0,0,100,0.00,40.00,9,4,0,0.00
2013-1-14,15.0,7.3,2.0,-99.9,-99.9,-99.9,0,0,100,0.00,40.00,5,3,0,0.00
2013-1-15,33.0,19.1,1.0,-99.9,-99.9,-99.9,0,0,100,0.00,40.00,7,4,0,0.00
2013-1-16,54.0,36.3,23.0,-99.9,-99.9,-99.9,0,0,100,0.00,40.00,6,4,0,0.00
2013-1-17,53.0,33.5,19.0,-99.9,-99.9,-99.9,0,0,100,0.00,40.00,5,3,0,0.00
2013-1-18,59.0,41.0,25.0,-99.9,-99.9,-99.9,0,0,100,0.00,40.00,8,-41,0,0.00
2013-1-19,61.0,43.2,27.0,-99.9,-99.9,-99.9,0,0,100,0.00,40.00,12,4,0,0.00
2013-1-20,47.0,33.2,22.0,-99.9,-99.9,-99.9,0,0,100,0.00,40.00,13,4,0,0.00
2013-1-21,58.0,37.9,15.0,-99.9,-99.9,-99.9,0,0,100,0.00,40.00,12,5,0,0.00
2013-1-22,64.0,48.7,32.0,-99.9,-99.9,-99.9,0,0,100,0.00,40.00,14,6,0,0.00
2013-1-23,54.0,41.2,30.0,-99.9,-99.9,-99.9,0,0,100,0.00,40.00,9,4,0,0.00
2013-1-24,66.0,48.2,25.0,-99.9,-99.9,-99.9,0,0,100,0.00,40.00,18,9,0,0.00
2013-1-25,56.0,41.5,29.0,-99.9,-99.9,-99.9,0,0,100,0.00,40.00,7,3,0,0.00
2013-1-26,53.0,40.0,28.0,-99.9,-99.9,-99.9,0,0,100,0.00,40.00,5,3,0,0.00
2013-1-27,59.0,42.9,31.0,-99.9,-99.9,-99.9,0,0,100,0.00,40.00,6,3,0,0.00
2013-1-28,51.0,36.8,28.0,-99.9,-99.9,-99.9,0,0,100,0.00,40.00,18,5,0,0.00
2013-1-29,31.0,26.2,21.0,-99.9,-99.9,-99.9,0,0,100,0.00,40.00,15,6,0,0.00
2013-1-30,40.0,29.0,13.0,-99.9,-99.9,-99.9,0,0,100,0.00,40.00,18,6,0,0.00
2013-1-31,46.0,35.7,23.0,-99.9,-99.9,-99.9,0,0,100,0.00,40.00,20,6,0,0.00